createdAt,value
2018-12-24T00:01:06.151Z,98088.07
2018-12-24T00:03:38.001Z,98090.59
2018-12-24T00:06:09.979Z,98106.45
2018-12-24T00:08:40.814Z,98121.95
2018-12-24T00:11:12.053Z,98126.63
2018-12-24T00:13:43.321Z,98139.59
2018-12-24T00:16:15.484Z,98136.21
2018-12-24T00:18:46.118Z,98125.53
2018-12-24T00:21:18.593Z,98107.20
2018-12-24T00:23:48.992Z,98100.59
2018-12-24T00:26:19.401Z,98101.23
2018-12-24T00:28:54.486Z,98102.86
2018-12-24T00:31:25.366Z,98107.44
2018-12-24T00:33:57.432Z,98105.76
2018-12-24T00:36:28.699Z,98100.28
2018-12-24T00:38:59.733Z,98092.98
2018-12-24T00:41:30.602Z,98099.41
2018-12-24T00:44:05.739Z,98090.17
2018-12-24T00:46:36.788Z,98094.53
2018-12-24T00:49:07.836Z,98087.06
2018-12-24T00:51:38.233Z,98086.30
2018-12-24T00:54:10.551Z,98084.44
2018-12-24T00:56:41.119Z,98075.17
2018-12-24T00:59:12.462Z,98081.23
2018-12-24T01:01:43.429Z,98082.56
2018-12-24T01:04:16.201Z,98075.70
2018-12-24T01:06:48.797Z,98081.37
2018-12-24T01:09:19.626Z,98082.58
2018-12-24T01:11:52.060Z,98078.31
2018-12-24T01:14:23.842Z,98071.08
2018-12-24T01:16:54.061Z,98063.15
2018-12-24T01:19:26.081Z,98073.77
2018-12-24T01:21:56.826Z,98076.88
2018-12-24T01:24:29.539Z,98065.57
2018-12-24T01:27:00.836Z,98065.73
2018-12-24T01:29:31.364Z,98067.36
2018-12-24T01:32:02.014Z,98068.13
2018-12-24T01:34:32.400Z,98055.41
2018-12-24T01:37:04.066Z,98052.48
2018-12-24T01:39:34.963Z,98055.53
2018-12-24T01:42:07.166Z,98052.58
2018-12-24T01:44:39.255Z,98045.18
2018-12-24T01:47:10.930Z,98055.05
2018-12-24T01:49:41.439Z,98051.77
2018-12-24T01:52:11.890Z,98045.78
2018-12-24T01:54:42.222Z,98052.66
2018-12-24T01:57:14.385Z,98049.30
2018-12-24T01:59:47.532Z,98042.21
2018-12-24T02:02:19.530Z,98046.39
2018-12-24T02:04:52.347Z,98049.37
2018-12-24T02:07:22.449Z,98043.49
2018-12-24T02:09:52.968Z,98043.17
2018-12-24T02:12:23.876Z,98045.63
2018-12-24T02:14:54.681Z,98050.77
2018-12-24T02:17:24.941Z,98051.65
2018-12-24T02:19:56.470Z,98053.66
2018-12-24T02:22:28.217Z,98051.13
2018-12-24T02:24:59.823Z,98048.50
2018-12-24T02:27:30.044Z,98042.13
2018-12-24T02:30:02.038Z,98035.63
2018-12-24T02:32:33.974Z,98037.14
2018-12-24T02:35:06.563Z,98036.63
2018-12-24T02:37:37.549Z,98021.98
2018-12-24T02:40:08.516Z,98020.84
2018-12-24T02:42:52.115Z,98018.91
2018-12-24T02:45:17.060Z,98012.13
2018-12-24T02:47:48.603Z,98006.22
2018-12-24T02:50:19.193Z,97998.89
2018-12-24T02:52:50.554Z,97995.98
2018-12-24T02:55:21.611Z,97993.29
2018-12-24T02:57:53.107Z,97989.28
2018-12-24T03:00:24.129Z,97977.61
2018-12-24T03:02:55.863Z,97983.27
2018-12-24T03:05:26.408Z,97988.74
2018-12-24T03:07:57.240Z,97995.75
2018-12-24T03:10:27.748Z,97988.97
2018-12-24T03:13:02.846Z,97988.14
2018-12-24T03:15:32.121Z,97978.28
2018-12-24T03:18:03.735Z,97964.33
2018-12-24T03:20:35.257Z,97956.95
2018-12-24T03:23:05.729Z,97957.84
2018-12-24T03:25:39.066Z,97965.25
2018-12-24T03:28:10.164Z,97962.84
2018-12-24T03:30:42.672Z,97970.83
2018-12-24T03:33:16.733Z,97962.31
2018-12-24T03:35:50.152Z,97964.86
2018-12-24T03:38:20.486Z,97963.29
2018-12-24T03:40:51.232Z,97961.86
2018-12-24T03:43:22.642Z,97950.59
2018-12-24T03:45:52.991Z,97942.91
2018-12-24T03:48:24.652Z,97920.09
2018-12-24T03:50:58.060Z,97916.42
2018-12-24T03:53:28.948Z,97903.88
2018-12-24T03:55:59.908Z,97899.63
2018-12-24T03:58:32.577Z,97896.89
2018-12-24T04:01:03.768Z,97902.41
2018-12-24T04:03:35.894Z,97895.14
2018-12-24T04:06:07.310Z,97895.45
2018-12-24T04:08:38.106Z,97897.26
2018-12-24T04:11:09.314Z,97895.03
2018-12-24T04:13:39.806Z,97890.31
2018-12-24T04:16:12.423Z,97878.67
2018-12-24T04:18:42.893Z,97873.98
2018-12-24T04:21:13.929Z,97873.98
2018-12-24T04:23:46.443Z,97879.42
2018-12-24T04:26:17.247Z,97862.41
2018-12-24T04:28:49.292Z,97859.16
2018-12-24T04:31:19.955Z,97868.45
2018-12-24T04:33:50.760Z,97867.63
2018-12-24T04:36:21.505Z,97863.18
2018-12-24T04:38:52.074Z,97856.07
2018-12-24T04:41:22.729Z,97853.84
2018-12-24T04:43:53.786Z,97851.39
2018-12-24T04:46:24.432Z,97845.64
2018-12-24T04:48:55.215Z,97840.70
2018-12-24T04:51:25.857Z,97831.31
2018-12-24T04:53:58.345Z,97828.02
2018-12-24T04:56:31.104Z,97844.13
2018-12-24T04:59:02.383Z,97840.79
2018-12-24T05:01:33.981Z,97845.94
2018-12-24T05:04:04.641Z,97836.30
2018-12-24T05:06:37.394Z,97836.30
2018-12-24T05:09:08.735Z,97826.91
2018-12-24T05:11:41.504Z,97810.00
2018-12-24T05:14:12.048Z,97810.00
2018-12-24T05:16:42.297Z,97821.34
2018-12-24T05:19:13.988Z,97820.70
2018-12-24T05:21:45.399Z,97820.70
2018-12-24T05:24:17.591Z,97827.22
2018-12-24T05:26:49.588Z,97830.70
2018-12-24T05:29:20.010Z,97820.05
2018-12-24T05:31:50.683Z,97820.05
2018-12-24T05:34:22.828Z,97820.14
2018-12-24T05:36:55.854Z,97829.15
2018-12-24T05:39:28.156Z,97834.75
2018-12-24T05:41:59.725Z,97825.48
2018-12-24T05:44:30.553Z,97826.98
2018-12-24T05:47:01.053Z,97809.34
2018-12-24T05:49:32.940Z,97804.39
2018-12-24T06:13:36.247Z,97790.69
2018-12-24T06:16:08.616Z,97784.63
2018-12-24T06:18:38.749Z,97784.63
2018-12-24T06:21:10.163Z,97777.81
2018-12-24T06:23:40.302Z,97792.56
2018-12-24T06:26:11.705Z,97790.08
2018-12-24T06:28:42.057Z,97773.47
2018-12-24T06:31:12.477Z,97773.02
2018-12-24T06:33:44.654Z,97765.28
2018-12-24T06:36:15.125Z,97757.12
2018-12-24T06:38:49.038Z,97757.29
2018-12-24T06:41:20.680Z,97741.65
2018-12-24T06:43:50.917Z,97756.84
2018-12-24T06:46:21.025Z,97757.69
2018-12-24T06:48:51.135Z,97767.05
2018-12-24T06:51:23.930Z,97764.16
2018-12-24T06:53:53.843Z,97753.43
2018-12-24T06:56:23.959Z,97751.77
2018-12-24T06:58:53.874Z,97759.02
2018-12-24T07:01:25.076Z,97759.02
2018-12-24T07:03:55.179Z,97769.07
2018-12-24T07:06:25.975Z,97748.12
2018-12-24T07:08:56.132Z,97760.80
2018-12-24T07:11:26.124Z,97762.28
2018-12-24T07:13:58.285Z,97767.28
2018-12-24T07:16:28.423Z,97776.44
2018-12-24T07:18:58.651Z,97762.59
2018-12-24T07:21:29.790Z,97762.59
2018-12-24T07:23:59.746Z,97770.19
2018-12-24T07:26:30.012Z,97778.52
2018-12-24T07:29:05.668Z,97778.52
2018-12-24T07:31:55.716Z,97793.66
2018-12-24T07:34:32.403Z,97765.80
2018-12-24T07:36:57.422Z,97778.89
2018-12-24T07:39:28.012Z,97779.69
2018-12-24T07:41:59.836Z,97776.72
2018-12-24T07:44:32.330Z,97780.23
2018-12-24T07:47:06.889Z,97778.20
2018-12-24T07:49:39.375Z,97788.48
2018-12-24T07:52:09.320Z,97777.13
2018-12-24T07:54:39.645Z,97766.48
2018-12-24T07:57:09.861Z,97773.52
2018-12-24T07:59:41.338Z,97772.83
2018-12-24T08:02:11.939Z,97772.83
2018-12-24T08:04:42.069Z,97762.55
2018-12-24T08:07:12.186Z,97763.06
2018-12-24T08:09:42.306Z,97755.56
2018-12-24T08:12:12.978Z,97755.56
2018-12-24T08:14:44.589Z,97755.84
2018-12-24T08:17:14.473Z,97751.08
2018-12-24T08:19:44.540Z,97739.41
2018-12-24T08:22:14.584Z,97749.88
2018-12-24T08:24:44.664Z,97739.86
2018-12-24T08:27:14.573Z,97721.06
2018-12-24T08:29:44.697Z,97726.80
2018-12-24T08:32:14.613Z,97726.44
2018-12-24T08:34:44.541Z,97734.27
2018-12-24T08:37:14.564Z,97741.36
2018-12-24T08:39:44.498Z,97754.78
2018-12-24T08:42:14.509Z,97754.55
2018-12-24T08:44:44.528Z,97773.15
2018-12-24T08:47:14.514Z,97766.26
2018-12-24T08:49:46.163Z,97769.27
2018-12-24T08:52:17.619Z,97765.23
2018-12-24T08:54:47.589Z,97751.95
2018-12-24T08:57:17.580Z,97752.87
2018-12-24T08:59:47.536Z,97769.63
2018-12-24T09:02:17.859Z,97775.37
2018-12-24T09:04:48.399Z,97788.28
2018-12-24T09:07:18.453Z,97786.25
2018-12-24T09:09:48.720Z,97806.81
2018-12-24T09:12:18.618Z,97817.27
2018-12-24T09:14:50.610Z,97812.64
2018-12-24T09:17:20.502Z,97802.05
2018-12-24T09:19:50.531Z,97784.19
2018-12-24T09:22:20.529Z,97787.39
2018-12-24T09:24:50.618Z,97782.71
2018-12-24T09:27:20.712Z,97788.37
2018-12-24T09:29:52.557Z,97783.95
2018-12-24T09:32:22.627Z,97769.92
2018-12-24T09:34:53.072Z,97754.55
2018-12-24T09:37:22.964Z,97739.52
2018-12-24T09:39:52.990Z,97734.23
2018-12-24T09:42:23.014Z,97737.66
2018-12-24T09:44:58.923Z,97738.51
2018-12-24T09:47:24.901Z,97750.16
2018-12-24T09:49:55.522Z,97749.12
2018-12-24T09:52:26.590Z,97748.54
2018-12-24T09:54:56.669Z,97756.12
2018-12-24T09:57:26.694Z,97755.46
2018-12-24T10:00:02.661Z,97753.78
2018-12-24T10:02:34.727Z,97748.20
2018-12-24T10:05:06.461Z,97739.45
2018-12-24T10:07:40.098Z,97710.66
2018-12-24T10:10:11.298Z,97706.14
2018-12-24T10:12:42.248Z,97722.45
2018-12-24T10:15:14.676Z,97737.17
2018-12-24T10:17:45.578Z,97751.64
2018-12-24T10:20:16.966Z,97747.17
2018-12-24T10:22:47.017Z,97723.63
2018-12-24T10:25:18.847Z,97698.59
2018-12-24T10:27:49.081Z,97685.03
2018-12-24T10:30:19.002Z,97683.39
2018-12-24T10:32:49.554Z,97674.58
2018-12-24T10:35:19.564Z,97692.29
2018-12-24T10:37:49.791Z,97702.35
2018-12-24T10:40:20.083Z,97725.61
2018-12-24T10:42:51.975Z,97729.72
2018-12-24T10:45:23.651Z,97723.69
2018-12-24T10:47:53.551Z,97712.19
2018-12-24T10:50:25.974Z,97712.88
2018-12-24T10:52:56.020Z,97711.77
2018-12-24T10:55:26.208Z,97695.94
2018-12-24T10:57:57.668Z,97683.58
2018-12-24T11:00:27.678Z,97673.40
2018-12-24T11:02:58.825Z,97656.11
2018-12-24T11:05:28.764Z,97645.11
2018-12-24T11:07:58.694Z,97644.02
2018-12-24T11:10:28.879Z,97644.53
2018-12-24T11:12:59.241Z,97646.16
2018-12-24T11:15:29.146Z,97641.84
2018-12-24T11:18:00.651Z,97637.98
2018-12-24T11:20:30.679Z,97647.70
2018-12-24T11:23:00.844Z,97649.73
2018-12-24T11:25:30.923Z,97625.82
2018-12-24T11:28:00.832Z,97611.05
2018-12-24T11:30:32.383Z,97596.30
2018-12-24T11:33:04.242Z,97603.17
2018-12-24T11:35:35.006Z,97595.47
2018-12-24T11:38:05.356Z,97611.09
2018-12-24T11:40:35.630Z,97597.06
2018-12-24T11:43:06.961Z,97605.55
2018-12-24T11:45:37.387Z,97611.16
2018-12-24T11:48:07.914Z,97582.84
2018-12-24T11:50:38.077Z,97579.33
2018-12-24T11:53:07.984Z,97572.75
2018-12-24T11:55:37.998Z,97572.36
2018-12-24T11:58:13.203Z,97567.37
2018-12-24T12:00:39.982Z,97585.14
2018-12-24T12:03:09.993Z,97579.85
2018-12-24T12:05:40.171Z,97580.25
2018-12-24T12:08:10.150Z,97572.59
2018-12-24T12:10:40.157Z,97575.88
2018-12-24T12:13:10.168Z,97566.62
2018-12-24T12:15:42.754Z,97573.41
2018-12-24T12:18:11.928Z,97572.84
2018-12-24T12:20:42.122Z,97550.14
2018-12-24T12:23:12.383Z,97552.66
2018-12-24T12:25:42.400Z,97546.94
2018-12-24T12:28:12.324Z,97533.89
2018-12-24T12:30:42.381Z,97526.67
2018-12-24T12:33:12.351Z,97530.52
2018-12-24T12:35:43.981Z,97536.84
2018-12-24T12:38:14.029Z,97537.80
2018-12-24T12:40:44.263Z,97539.23
2018-12-24T12:43:15.564Z,97535.38
2018-12-24T12:45:51.303Z,97550.80
2018-12-24T12:48:17.516Z,97559.95
2018-12-24T12:50:48.154Z,97571.44
2018-12-24T12:53:18.232Z,97577.25
2018-12-24T12:55:49.345Z,97563.61
2018-12-24T12:58:19.707Z,97568.75
2018-12-24T13:00:50.142Z,97575.23
2018-12-24T13:03:20.021Z,97576.72
2018-12-24T13:05:50.274Z,97562.16
2018-12-24T13:08:20.260Z,97581.28
2018-12-24T13:10:50.619Z,97573.57
2018-12-24T13:13:20.651Z,97575.71
2018-12-24T13:15:50.747Z,97581.28
2018-12-24T13:18:21.965Z,97575.09
2018-12-24T13:20:52.330Z,97568.17
2018-12-24T13:23:24.022Z,97552.34
2018-12-24T13:25:54.415Z,97558.56
2018-12-24T13:28:24.524Z,97554.44
2018-12-24T13:30:54.858Z,97551.00
2018-12-24T13:33:26.591Z,97552.45
2018-12-24T13:35:56.690Z,97555.92
2018-12-24T13:38:28.292Z,97551.55
2018-12-24T13:40:58.246Z,97543.14
2018-12-24T13:43:28.332Z,97539.13
2018-12-24T13:45:58.360Z,97528.02
2018-12-24T13:48:30.296Z,97526.67
2018-12-24T13:51:00.494Z,97548.03
2018-12-24T13:53:30.448Z,97562.68
2018-12-24T13:56:00.851Z,97572.87
2018-12-24T13:58:32.528Z,97582.11
2018-12-24T14:01:06.002Z,97586.67
2018-12-24T14:03:36.595Z,97595.44
2018-12-24T14:06:06.998Z,97602.33
2018-12-24T14:09:58.792Z,97595.17
2018-12-24T14:12:28.847Z,97598.84
2018-12-24T14:14:58.900Z,97598.31
2018-12-24T14:17:28.820Z,97594.52
2018-12-24T14:19:58.772Z,97596.66
2018-12-24T14:22:28.864Z,97596.11
2018-12-24T14:24:58.720Z,97591.43
2018-12-24T14:27:28.643Z,97581.34
2018-12-24T14:29:58.963Z,97568.52
2018-12-24T14:32:29.106Z,97577.00
2018-12-24T14:34:58.898Z,97573.26
2018-12-24T14:37:29.628Z,97574.81
2018-12-24T14:39:59.551Z,97578.53
2018-12-24T14:42:29.593Z,97575.89
2018-12-24T14:44:59.380Z,97580.25
2018-12-24T14:47:29.201Z,97576.21
2018-12-24T14:49:59.131Z,97580.26
2018-12-24T14:52:29.034Z,97591.14
2018-12-24T14:54:59.054Z,97595.52
2018-12-24T14:57:29.266Z,97598.22
2018-12-24T14:59:59.178Z,97602.50
2018-12-24T15:02:29.357Z,97604.43
2018-12-24T15:05:00.211Z,97596.34
2018-12-24T15:07:30.072Z,97596.87
2018-12-24T15:10:00.392Z,97603.03
2018-12-24T15:12:30.354Z,97601.16
2018-12-24T15:15:00.590Z,97594.94
2018-12-24T15:17:30.450Z,97589.36
2018-12-24T15:20:00.478Z,97578.27
2018-12-24T15:22:30.306Z,97580.87
2018-12-24T15:25:00.326Z,97581.34
2018-12-24T15:27:33.178Z,97578.00
2018-12-24T15:30:03.054Z,97554.59
2018-12-24T15:32:33.102Z,97551.07
2018-12-24T15:35:02.975Z,97549.72
2018-12-24T15:37:33.238Z,97549.05
2018-12-24T15:40:03.585Z,97556.42
2018-12-24T15:42:33.591Z,97549.50
2018-12-24T15:45:04.379Z,97547.36
2018-12-24T15:47:36.234Z,97551.80
2018-12-24T15:50:06.878Z,97559.97
2018-12-24T15:52:36.766Z,97561.64
2018-12-24T15:55:16.509Z,97566.88
2018-12-24T15:57:46.829Z,97570.55
2018-12-24T16:00:17.240Z,97570.23
2018-12-24T16:02:48.060Z,97567.34
2018-12-24T16:05:22.088Z,97567.73
2018-12-24T16:07:52.067Z,97575.42
2018-12-24T16:10:21.987Z,97570.13
2018-12-24T16:12:53.159Z,97570.91
2018-12-24T16:15:23.565Z,97566.70
2018-12-24T16:17:53.709Z,97571.83
2018-12-24T16:20:24.090Z,97574.83
2018-12-24T16:22:56.646Z,97576.94
2018-12-24T16:25:27.294Z,97578.16
2018-12-24T16:28:02.285Z,97587.59
2018-12-24T16:30:32.625Z,97586.03
2018-12-24T16:33:04.408Z,97593.09
2018-12-24T16:35:34.671Z,97587.47
2018-12-24T16:38:06.186Z,97589.36
2018-12-24T16:40:36.652Z,97593.13
2018-12-24T16:43:07.405Z,97594.56
2018-12-24T16:45:38.044Z,97595.72
2018-12-24T16:48:09.573Z,97594.56
2018-12-24T16:50:39.568Z,97586.58
2018-12-24T16:53:09.511Z,97578.84
2018-12-24T16:55:39.502Z,97582.52
2018-12-24T16:58:09.934Z,97581.99
2018-12-24T17:00:41.710Z,97582.61
2018-12-24T17:03:12.407Z,97572.98
2018-12-24T17:05:42.667Z,97568.84
2018-12-24T17:08:13.043Z,97577.95
2018-12-24T17:10:43.670Z,97576.59
2018-12-24T17:13:15.321Z,97574.20
2018-12-24T17:15:45.650Z,97570.81
2018-12-24T17:18:16.119Z,97569.39
2018-12-24T17:20:46.733Z,97582.77
2018-12-24T17:23:17.968Z,97591.86
2018-12-24T17:25:48.624Z,97595.48
2018-12-24T17:28:18.706Z,97610.91
2018-12-24T17:30:49.445Z,97605.63
2018-12-24T17:33:19.830Z,97599.27
2018-12-24T17:35:49.888Z,97597.93
2018-12-24T17:38:20.288Z,97609.33
2018-12-24T17:40:50.639Z,97616.16
2018-12-24T17:43:20.699Z,97621.91
2018-12-24T17:45:50.829Z,97620.41
2018-12-24T17:48:21.714Z,97618.86
2018-12-24T17:50:53.894Z,97615.70
2018-12-24T17:53:24.443Z,97609.84
2018-12-24T17:55:55.268Z,97618.08
2018-12-24T17:58:25.927Z,97610.80
2018-12-24T18:00:56.463Z,97614.19
2018-12-24T18:03:28.252Z,97624.69
2018-12-24T18:05:58.222Z,97634.21
2018-12-24T18:08:29.095Z,97630.34
2018-12-24T18:10:59.130Z,97636.42
2018-12-24T18:13:30.303Z,97638.08
2018-12-24T18:16:00.858Z,97638.25
2018-12-24T18:18:31.559Z,97647.93
2018-12-24T18:21:02.840Z,97655.00
2018-12-24T18:23:33.576Z,97653.84
2018-12-24T18:26:05.229Z,97666.58
2018-12-24T18:28:35.423Z,97658.87
2018-12-24T18:31:05.455Z,97655.75
2018-12-24T18:33:36.113Z,97669.65
2018-12-24T18:36:07.656Z,97676.25
2018-12-24T18:38:39.126Z,97688.42
2018-12-24T18:41:09.388Z,97689.58
2018-12-24T18:43:42.236Z,97685.38
2018-12-24T18:46:14.447Z,97685.55
2018-12-24T18:48:44.885Z,97690.87
2018-12-24T18:51:17.058Z,97701.91
2018-12-24T18:53:47.599Z,97701.23
2018-12-24T18:56:17.844Z,97712.23
2018-12-24T18:58:49.598Z,97718.19
2018-12-24T19:01:19.892Z,97727.53
2018-12-24T19:03:50.834Z,97737.77
2018-12-24T19:06:21.104Z,97742.86
2018-12-24T19:08:53.085Z,97758.17
2018-12-24T19:11:23.348Z,97779.56
2018-12-24T19:13:55.015Z,97781.42
2018-12-24T19:16:25.327Z,97787.50
2018-12-24T19:18:57.612Z,97788.50
2018-12-24T19:21:28.974Z,97781.84
2018-12-24T19:23:59.907Z,97793.03
2018-12-24T19:26:30.559Z,97799.83
2018-12-24T19:29:01.535Z,97801.81
2018-12-24T19:31:33.362Z,97811.12
2018-12-24T19:34:04.622Z,97819.50
2018-12-24T19:36:35.283Z,97823.55
2018-12-24T19:39:08.173Z,97834.77
2018-12-24T19:41:40.235Z,97833.58
2018-12-24T19:47:11.716Z,97856.89
2018-12-24T19:49:41.650Z,97864.88
2018-12-24T19:52:13.174Z,97864.38
2018-12-24T19:54:43.100Z,97880.95
2018-12-24T19:57:13.277Z,97874.47
2018-12-24T19:59:43.223Z,97888.14
2018-12-24T20:02:13.823Z,97888.88
2018-12-24T20:04:43.818Z,97899.39
2018-12-24T20:07:14.935Z,97906.17
2018-12-24T20:09:45.041Z,97910.14
2018-12-24T20:12:15.073Z,97910.23
2018-12-24T20:14:45.403Z,97913.43
2018-12-24T20:17:15.320Z,97914.12
2018-12-24T20:19:45.775Z,97913.88
2018-12-24T20:22:15.980Z,97912.86
2018-12-24T20:24:46.091Z,97926.88
2018-12-24T20:27:16.065Z,97939.20
2018-12-24T20:29:46.174Z,97935.77
2018-12-24T20:32:19.756Z,97943.35
2018-12-24T20:34:51.542Z,97950.27
2018-12-24T20:37:22.220Z,97964.21
2018-12-24T20:39:53.674Z,97961.36
2018-12-24T20:42:23.569Z,97976.77
2018-12-24T20:44:53.448Z,97969.77
2018-12-24T20:47:23.460Z,97978.34
2018-12-24T20:49:53.507Z,97978.21
2018-12-24T20:52:23.827Z,97995.63
2018-12-24T20:54:54.678Z,98001.27
2018-12-24T20:57:24.730Z,98008.44
2018-12-24T20:59:54.797Z,98025.89
2018-12-24T21:02:27.013Z,98021.47
2018-12-24T21:04:56.906Z,98035.84
2018-12-24T21:07:26.682Z,98035.71
2018-12-24T21:09:56.701Z,98041.19
2018-12-24T21:12:27.797Z,98050.84
2018-12-24T21:14:57.622Z,98050.84
2018-12-24T21:17:27.749Z,98051.61
2018-12-24T21:19:57.644Z,98044.00
2018-12-24T21:22:28.249Z,98040.74
2018-12-24T21:24:58.147Z,98056.06
2018-12-24T21:27:29.385Z,98066.06
2018-12-24T21:30:00.802Z,98060.13
2018-12-24T21:32:30.958Z,98072.05
2018-12-24T21:35:00.867Z,98074.22
2018-12-24T21:37:30.654Z,98072.05
2018-12-24T21:40:00.901Z,98064.25
2018-12-24T21:42:30.778Z,98064.25
2018-12-24T21:45:01.838Z,98080.09
2018-12-24T21:47:32.146Z,98072.17
2018-12-24T21:50:03.774Z,98072.17
2018-12-24T21:52:33.625Z,98087.57
2018-12-24T21:55:03.536Z,98087.57
2018-12-24T21:57:33.564Z,98093.04
2018-12-24T22:00:04.942Z,98105.29
2018-12-24T22:02:36.330Z,98106.89
2018-12-24T22:05:06.110Z,98103.50
2018-12-24T22:07:36.502Z,98094.63
2018-12-24T22:10:07.112Z,98108.34
2018-12-24T22:12:37.343Z,98090.33
2018-12-24T22:15:07.566Z,98099.51
2018-12-24T22:17:39.518Z,98099.00
2018-12-24T22:20:12.101Z,98106.94
2018-12-24T22:22:43.916Z,98108.75
2018-12-24T22:25:14.644Z,98102.13
2018-12-24T22:27:46.032Z,98103.66
2018-12-24T22:30:17.792Z,98097.28
2018-12-24T22:32:49.307Z,98097.28
2018-12-24T22:35:19.494Z,98112.12
2018-12-24T22:37:49.704Z,98126.87
2018-12-24T22:40:19.754Z,98130.09
2018-12-24T22:42:50.511Z,98131.24
2018-12-24T22:45:20.368Z,98135.69
2018-12-24T22:47:50.721Z,98133.41
2018-12-24T22:50:20.740Z,98131.66
2018-12-24T22:52:51.259Z,98129.70
2018-12-24T22:55:21.221Z,98123.30
2018-12-24T22:57:51.592Z,98135.63
2018-12-24T23:00:24.078Z,98131.89
2018-12-24T23:02:54.310Z,98134.78
2018-12-24T23:05:25.907Z,98125.72
2018-12-24T23:07:55.951Z,98143.30
2018-12-24T23:10:26.593Z,98136.61
2018-12-24T23:12:58.213Z,98139.78
2018-12-24T23:15:28.390Z,98133.87
2018-12-24T23:17:59.651Z,98163.36
2018-12-24T23:20:30.656Z,98145.55
2018-12-24T23:23:00.607Z,98150.55
2018-12-24T23:25:31.503Z,98148.59
2018-12-24T23:28:02.840Z,98148.52
2018-12-24T23:30:33.110Z,98131.55
2018-12-24T23:33:02.895Z,98133.62
2018-12-24T23:35:32.959Z,98133.83
2018-12-24T23:38:02.887Z,98145.12
2018-12-24T23:40:33.301Z,98150.09
2018-12-24T23:43:03.505Z,98145.05
2018-12-24T23:45:36.262Z,98151.11
2018-12-24T23:48:06.087Z,98157.80
2018-12-24T23:50:36.015Z,98152.71
2018-12-24T23:53:06.659Z,98159.92
2018-12-24T23:55:36.611Z,98162.46
2018-12-24T23:58:07.071Z,98149.19
